Time;durP1;ratioP1;P1;durP2;ratioP2;P2;SDS_P1;SDS_P2;PMS_P1;PMS_P2;Temp;Humidity;BMP_temperature;BMP_pressure;BME280_temperature;BME280_humidity;BME280_pressure;Samples;Min_cycle;Max_cycle;Signal;HPM_P1;HPM_P2
2023/01/18 00:00:09;;;;;;;16.07;9.20;;;;;;;-141.97;100.00;47949.66;5057984;28;20165;-86
2023/01/18 00:02:34;;;;;;;21.27;11.50;;;;;;;-141.97;100.00;47907.34;5054260;28;20162;-85
2023/01/18 00:05:00;;;;;;;21.07;10.60;;;;;;;-141.97;100.00;47949.66;5053845;28;20169;-86
2023/01/18 00:07:25;;;;;;;29.97;16.00;;;;;;;-141.97;100.00;47940.03;5052969;28;20655;-85
2023/01/18 00:09:51;;;;;;;19.77;9.23;;;;;;;-141.97;100.00;47909.28;5053980;28;20647;-86
2023/01/18 00:12:17;;;;;;;14.13;8.33;;;;;;;-141.97;100.00;47984.25;5053385;28;20158;-85
2023/01/18 00:14:43;;;;;;;12.57;5.50;;;;;;;-141.97;100.00;47926.56;5052567;28;20245;-86
2023/01/18 00:17:08;;;;;;;12.37;5.03;;;;;;;-141.97;100.00;47984.25;5051433;28;20556;-86
2023/01/18 00:19:34;;;;;;;9.60;5.73;;;;;;;-141.97;100.00;47865.06;5053275;28;20562;-86
2023/01/18 00:21:59;;;;;;;13.90;5.57;;;;;;;-141.97;99.77;47922.72;5061064;28;20170;-86
2023/01/18 00:24:26;;;;;;;18.60;6.27;;;;;;;-141.97;99.90;47861.22;5070152;28;20157;-85
2023/01/18 00:26:52;;;;;;;12.87;5.57;;;;;;;-141.97;99.51;47915.03;5066221;28;20157;-85
2023/01/18 00:29:18;;;;;;;15.83;4.90;;;;;;;-141.97;99.17;47922.72;5053069;28;20231;-85
2023/01/18 00:31:43;;;;;;;7.00;4.20;;;;;;;-141.97;98.50;47943.88;5052339;28;20170;-85
2023/01/18 00:34:10;;;;;;;11.17;4.70;;;;;;;-141.97;98.06;47953.50;5056257;28;20167;-86
2023/01/18 00:36:35;;;;;;;9.33;4.10;;;;;;;-141.97;97.30;47916.97;5066669;28;20177;-86
2023/01/18 00:39:01;;;;;;;8.87;4.13;;;;;;;-141.97;96.88;47891.97;5077313;28;20154;-85
2023/01/18 00:41:26;;;;;;;9.03;3.97;;;;;;;-141.97;96.67;47911.19;5052886;28;20166;-86
2023/01/18 00:43:52;;;;;;;11.00;4.37;;;;;;;-141.97;96.69;47934.25;5051914;28;20284;-86
2023/01/18 00:46:23;;;;;;;8.53;4.10;;;;;;;-141.97;96.12;47922.72;5051779;28;20231;-87
2023/01/18 00:48:51;;;;;;;11.70;4.97;;;;;;;-141.97;96.10;47963.09;5051853;28;20653;-86
2023/01/18 00:51:24;;;;;;;11.23;5.27;;;;;;;-141.97;96.20;47899.66;5051653;28;20216;-85
2023/01/18 00:53:49;;;;;;;10.17;5.17;;;;;;;-141.97;96.29;47911.19;5051873;28;20241;-85
2023/01/18 00:56:17;;;;;;;10.67;4.80;;;;;;;-141.97;96.26;47943.88;5051808;28;20537;-85
2023/01/18 00:58:43;;;;;;;7.47;3.93;;;;;;;-141.97;96.02;47916.97;5051727;28;20161;-85
2023/01/18 01:01:10;;;;;;;16.83;7.23;;;;;;;-141.97;96.35;47951.56;5051793;28;20172;-85
2023/01/18 01:06:45;;;;;;;14.33;6.40;;;;;;;-141.97;94.85;47915.03;5052412;28;20219;-85
2023/01/18 01:09:13;;;;;;;11.10;5.50;;;;;;;-141.97;94.72;47928.50;5051889;28;20197;-85
2023/01/18 01:11:39;;;;;;;14.83;6.70;;;;;;;-141.97;95.42;47888.13;5050641;28;20173;-85
2023/01/18 01:27:44;;;;;;;41.30;24.87;;;;;;;-141.97;95.69;47899.66;5054606;28;20215;-85
2023/01/18 01:30:10;;;;;;;53.50;27.07;;;;;;;-141.97;95.44;47920.81;5051896;28;20193;-84
2023/01/18 01:32:35;;;;;;;16.53;8.33;;;;;;;-141.97;91.14;47807.41;5051704;28;20180;-85
2023/01/18 01:35:01;;;;;;;15.03;6.93;;;;;;;-141.97;90.39;47895.81;5050116;28;20165;-85
2023/01/18 01:37:26;;;;;;;9.27;4.00;;;;;;;-141.97;90.24;47918.88;5051459;28;20244;-84
2023/01/18 01:39:51;;;;;;;19.40;7.93;;;;;;;-141.97;90.14;47895.81;5050038;28;20247;-84
2023/01/18 01:42:17;;;;;;;32.50;14.07;;;;;;;-141.97;90.25;47926.56;5060621;28;20196;-86
2023/01/18 01:44:46;;;;;;;31.57;13.67;;;;;;;-141.97;90.22;47926.56;5061436;28;20594;-85
2023/01/18 01:47:19;;;;;;;24.53;12.20;;;;;;;-141.97;90.34;48011.16;5056814;28;20165;-85
2023/01/18 01:49:51;;;;;;;20.77;10.10;;;;;;;-141.97;90.35;47868.91;5056192;28;20181;-85
2023/01/18 01:52:25;;;;;;;14.33;6.67;;;;;;;-141.97;90.62;47916.97;5053840;28;20605;-85
2023/01/18 01:54:58;;;;;;;6.30;3.17;;;;;;;-141.97;86.11;47915.03;5055335;28;20170;-85
2023/01/18 01:57:31;;;;;;;16.30;7.60;;;;;;;-141.97;86.67;47926.56;5055539;28;20161;-85
2023/01/18 01:59:57;;;;;;;16.10;6.73;;;;;;;-141.97;86.68;47930.41;5055107;28;20614;-86
2023/01/18 02:02:22;;;;;;;17.50;7.40;;;;;;;-141.97;87.47;47920.81;5067672;28;20157;-86
2023/01/18 02:04:52;;;;;;;16.33;8.07;;;;;;;-141.97;87.92;47899.66;5054382;28;20172;-86
2023/01/18 02:07:18;;;;;;;15.03;7.13;;;;;;;-141.97;89.22;47961.19;5055384;28;20170;-86
2023/01/18 02:09:44;;;;;;;16.27;6.83;;;;;;;-141.97;89.73;47834.31;5056724;28;20212;-86
2023/01/18 02:12:10;;;;;;;12.53;5.90;;;;;;;-141.97;90.36;47799.72;5055515;28;20695;-86
2023/01/18 02:14:35;;;;;;;12.07;5.13;;;;;;;-141.97;90.84;47838.16;5055370;28;20610;-85
2023/01/18 02:17:31;;;;;;;7.90;3.87;;;;;;;-141.97;90.81;47903.50;5072367;28;20166;-84
2023/01/18 02:20:37;;;;;;;11.17;3.93;;;;;;;-141.97;90.79;47918.88;5054705;28;20629;-84
2023/01/18 02:23:35;;;;;;;6.87;3.80;;;;;;;-141.97;91.50;47876.59;5055781;28;20653;-85
2023/01/18 02:26:28;;;;;;;8.17;3.90;;;;;;;-141.97;91.98;47895.81;4993951;28;20214;-84
2023/01/18 02:29:11;;;;;;;7.30;3.50;;;;;;;-141.97;92.13;47934.25;5001596;28;20199;-84
2023/01/18 02:32:01;;;;;;;7.60;3.30;;;;;;;-141.97;92.73;47930.41;4998166;28;20192;-85
2023/01/18 02:34:41;;;;;;;9.90;3.90;;;;;;;-141.97;92.62;47880.44;4993817;28;20167;-84
2023/01/18 02:37:19;;;;;;;10.73;3.60;;;;;;;-141.97;92.68;47901.59;4993798;28;20218;-84
2023/01/18 02:39:47;;;;;;;10.17;4.07;;;;;;;-141.97;92.37;47897.75;4992482;28;20178;-85
2023/01/18 02:48:35;;;;;;;8.83;5.23;;;;;;;-141.97;96.10;47930.41;4935147;29;20195;-87
2023/01/18 02:51:00;;;;;;;9.37;4.40;;;;;;;-141.97;96.46;47870.81;4934665;29;20312;-85
2023/01/18 02:53:26;;;;;;;9.50;4.53;;;;;;;-141.97;96.78;47884.28;4935284;29;20257;-85
2023/01/18 02:56:07;;;;;;;27.77;14.27;;;;;;;-141.97;96.58;47928.50;4940848;29;20316;-84
2023/01/18 02:58:35;;;;;;;43.37;16.47;;;;;;;-141.97;96.78;47943.88;4941940;29;20268;-84
2023/01/18 03:01:06;;;;;;;49.20;19.17;;;;;;;-141.97;97.65;47980.41;4932058;29;20251;-85
2023/01/18 03:03:32;;;;;;;16.97;5.87;;;;;;;-141.97;97.79;47853.53;5019224;28;20187;-85
2023/01/18 03:06:01;;;;;;;12.30;4.07;;;;;;;-141.97;98.16;47920.81;5015964;28;20232;-84
2023/01/18 03:08:36;;;;;;;11.77;4.27;;;;;;;-141.97;98.68;47907.34;5017400;28;20247;-87
2023/01/18 03:11:26;;;;;;;13.27;6.27;;;;;;;-141.97;99.31;48016.94;5033874;28;20223;-86
2023/01/18 03:13:52;;;;;;;34.50;15.43;;;;;;;-141.97;99.27;47915.03;4973680;29;20188;-87
2023/01/18 03:16:22;;;;;;;56.10;26.00;;;;;;;-141.97;99.79;47784.34;4967233;28;20188;-86
2023/01/18 03:19:01;;;;;;;98.33;40.57;;;;;;;-141.97;99.85;47909.28;4963012;29;20692;-85
2023/01/18 03:21:36;;;;;;;10.27;5.03;;;;;;;-141.97;100.00;47853.53;4945454;29;20173;-85
2023/01/18 03:24:05;;;;;;;16.33;6.87;;;;;;;-141.97;100.00;47899.66;4968191;28;20195;-85
2023/01/18 03:26:35;;;;;;;32.10;14.67;;;;;;;-141.97;100.00;47855.44;4982354;28;20245;-85
2023/01/18 03:34:51;;;;;;;18.23;8.03;;;;;;;-141.97;100.00;47903.50;4995475;28;20174;-86
2023/01/18 03:37:36;;;;;;;15.73;7.77;;;;;;;-141.97;100.00;47880.44;4999280;28;20338;-86
2023/01/18 03:40:07;;;;;;;13.17;6.90;;;;;;;-141.97;100.00;47884.28;5002021;28;20239;-85
2023/01/18 03:42:47;;;;;;;22.33;6.67;;;;;;;-141.97;100.00;47897.75;5003303;28;20222;-85
2023/01/18 03:45:27;;;;;;;13.57;6.20;;;;;;;-141.97;100.00;47920.81;5002729;28;20199;-85
2023/01/18 03:47:53;;;;;;;25.60;13.13;;;;;;;-141.97;100.00;47899.66;5001897;28;20656;-85
2023/01/18 03:50:24;;;;;;;25.83;11.67;;;;;;;-141.97;100.00;47907.34;4995713;28;20313;-84
2023/01/18 03:52:57;;;;;;;22.30;9.17;;;;;;;-141.97;100.00;47995.78;5040828;28;20276;-85
2023/01/18 03:55:30;;;;;;;15.40;5.80;;;;;;;-141.97;100.00;47903.50;5041223;28;20229;-85
2023/01/18 03:58:09;;;;;;;12.43;5.57;;;;;;;-141.97;100.00;47851.59;5040325;28;20251;-86
2023/01/18 04:00:36;;;;;;;10.47;4.57;;;;;;;-141.97;100.00;47895.81;5040203;28;20157;-85
2023/01/18 04:03:01;;;;;;;16.57;5.07;;;;;;;-141.97;100.00;47792.03;5041958;28;20174;-85
2023/01/18 04:05:27;;;;;;;12.77;6.33;;;;;;;-141.97;99.78;47803.56;5051438;28;20165;-87
2023/01/18 04:07:52;;;;;;;35.00;15.47;;;;;;;-141.97;100.00;47897.75;5055497;28;20170;-84
2023/01/18 04:10:18;;;;;;;17.77;6.23;;;;;;;-141.97;100.00;47818.94;5048321;28;20194;-85
2023/01/18 04:12:44;;;;;;;17.77;6.77;;;;;;;-141.97;100.00;47915.03;5054322;28;20197;-86
2023/01/18 04:15:10;;;;;;;14.90;5.60;;;;;;;-141.97;100.00;47930.41;5066896;28;20166;-86
2023/01/18 04:17:35;;;;;;;16.23;6.40;;;;;;;-141.97;100.00;47991.94;5066764;28;20196;-86
2023/01/18 04:20:01;;;;;;;19.20;7.70;;;;;;;-141.97;100.00;47866.97;5062512;28;20164;-85
2023/01/18 04:22:26;;;;;;;14.53;5.33;;;;;;;-141.97;100.00;47813.16;5072363;28;20248;-85
2023/01/18 04:24:52;;;;;;;18.63;8.47;;;;;;;-141.97;100.00;47818.94;5071767;28;20162;-84
2023/01/18 04:27:17;;;;;;;16.10;6.37;;;;;;;-141.97;100.00;47922.72;5065822;28;20176;-85
2023/01/18 04:29:43;;;;;;;14.77;6.20;;;;;;;-141.97;100.00;47915.03;5070035;28;20185;-86
2023/01/18 04:32:08;;;;;;;19.23;7.47;;;;;;;-141.97;100.00;47957.34;5073783;28;20256;-85
2023/01/18 04:34:33;;;;;;;21.80;9.80;;;;;;;-141.97;100.00;47807.41;5071011;28;20165;-86
2023/01/18 04:37:08;;;;;;;36.70;16.47;;;;;;;-141.97;100.00;47951.56;5075692;28;20184;-86
2023/01/18 04:39:37;;;;;;;26.00;9.90;;;;;;;-141.97;100.00;47936.19;5069891;28;20160;-87
2023/01/18 04:42:06;;;;;;;24.80;11.07;;;;;;;-141.97;100.00;47928.50;5069467;28;20177;-87
2023/01/18 04:44:32;;;;;;;56.50;25.13;;;;;;;-141.97;100.00;47784.34;5069695;28;20231;-89
2023/01/18 04:46:57;;;;;;;31.97;12.00;;;;;;;-141.97;100.00;47784.34;5070746;28;20170;-86
2023/01/18 04:49:23;;;;;;;19.40;9.20;;;;;;;-141.97;100.00;47965.03;5069335;28;20196;-87
2023/01/18 04:51:48;;;;;;;19.10;8.20;;;;;;;-141.97;100.00;47965.03;5059435;28;20719;-87
2023/01/18 04:54:16;;;;;;;176.67;93.87;;;;;;;-141.97;100.00;47928.50;5061376;28;20177;-87
2023/01/18 04:56:44;;;;;;;28.33;14.10;;;;;;;-141.97;100.00;47834.31;5067536;28;20173;-88
2023/01/18 04:59:14;;;;;;;21.53;7.97;;;;;;;-141.97;100.00;47909.28;5065793;28;20214;-85
2023/01/18 05:01:40;;;;;;;17.53;6.70;;;;;;;-141.97;100.00;47874.69;5052858;28;20153;-87
2023/01/18 05:04:05;;;;;;;50.10;22.07;;;;;;;-141.97;100.00;47990.00;5036592;28;20194;-85
2023/01/18 05:06:31;;;;;;;31.57;16.43;;;;;;;-141.97;100.00;47926.56;5046687;28;20250;-87
2023/01/18 05:08:57;;;;;;;19.47;8.40;;;;;;;-141.97;100.00;47807.41;5031660;28;20216;-88
2023/01/18 05:11:23;;;;;;;25.40;10.77;;;;;;;-141.97;100.00;47949.66;5047013;28;20277;-88
2023/01/18 05:13:48;;;;;;;20.50;8.60;;;;;;;-141.97;100.00;47965.03;5043585;28;20178;-88
2023/01/18 05:16:20;;;;;;;39.40;20.47;;;;;;;-141.97;100.00;47980.41;5040465;28;20186;-85
2023/01/18 05:18:46;;;;;;;16.33;7.80;;;;;;;-141.97;100.00;47874.69;5027196;28;20584;-86
2023/01/18 05:21:12;;;;;;;21.77;10.40;;;;;;;-141.97;100.00;47861.22;5045821;28;20204;-88
2023/01/18 05:23:41;;;;;;;24.40;9.97;;;;;;;-141.97;100.00;47974.63;5036710;28;20177;-88
2023/01/18 05:26:14;;;;;;;25.13;11.10;;;;;;;-141.97;100.00;47903.50;5037500;28;20174;-85
2023/01/18 05:28:41;;;;;;;23.07;9.33;;;;;;;-141.97;100.00;47899.66;5014743;28;20800;-87
2023/01/18 05:31:07;;;;;;;15.40;7.47;;;;;;;-141.97;100.00;47851.59;5007760;28;20190;-86
2023/01/18 05:33:33;;;;;;;20.33;8.80;;;;;;;-141.97;100.00;47874.69;5030802;28;20170;-86
2023/01/18 05:36:01;;;;;;;20.07;8.87;;;;;;;-141.97;100.00;47934.25;5016326;28;20213;-89
2023/01/18 05:38:26;;;;;;;42.23;20.83;;;;;;;-141.97;100.00;47941.94;5002149;28;20209;-86
2023/01/18 05:40:53;;;;;;;24.23;10.77;;;;;;;-141.97;100.00;47938.09;5007735;28;20732;-86
2023/01/18 05:43:21;;;;;;;45.83;21.20;;;;;;;-141.97;100.00;47874.69;5061695;28;20228;-85
2023/01/18 05:45:47;;;;;;;50.07;23.93;;;;;;;-141.97;100.00;47924.66;5047278;28;20192;-85
2023/01/18 05:48:14;;;;;;;27.50;12.03;;;;;;;-141.97;100.00;47930.41;5045653;28;20638;-86
2023/01/18 05:50:42;;;;;;;26.13;11.47;;;;;;;-141.97;100.00;47970.78;5057206;28;20189;-85
2023/01/18 05:53:07;;;;;;;28.83;12.73;;;;;;;-141.97;100.00;47861.22;5056296;28;20535;-85
2023/01/18 05:55:33;;;;;;;40.83;21.53;;;;;;;-141.97;100.00;47972.72;5065804;28;20184;-87
2023/01/18 05:57:59;;;;;;;56.27;29.40;;;;;;;-141.97;100.00;47811.25;5056514;28;20205;-85
2023/01/18 06:00:24;;;;;;;44.93;24.03;;;;;;;-141.97;100.00;47990.00;5063705;28;20187;-87
2023/01/18 06:02:52;;;;;;;49.67;24.33;;;;;;;-141.97;100.00;47838.16;5059888;28;20180;-86
2023/01/18 06:05:17;;;;;;;27.53;12.67;;;;;;;-141.97;100.00;47968.88;5065306;28;20178;-86
2023/01/18 06:07:43;;;;;;;27.83;14.17;;;;;;;-141.97;100.00;47993.84;5058397;28;20188;-85
2023/01/18 06:10:12;;;;;;;32.63;18.13;;;;;;;-141.97;100.00;47838.16;5068662;28;20200;-88
2023/01/18 06:12:37;;;;;;;36.43;20.53;;;;;;;-141.97;100.00;47857.38;5051223;28;20192;-86
2023/01/18 06:15:03;;;;;;;53.63;25.13;;;;;;;-141.97;100.00;47966.94;5063181;28;20165;-86
2023/01/18 06:17:30;;;;;;;44.13;20.40;;;;;;;-141.97;100.00;47820.84;5064008;28;20180;-84
2023/01/18 06:19:56;;;;;;;63.03;26.10;;;;;;;-141.97;100.00;47859.28;5068351;28;20229;-87
2023/01/18 06:22:22;;;;;;;48.40;29.83;;;;;;;-141.97;100.00;47991.94;5061387;28;20656;-86
2023/01/18 06:24:48;;;;;;;37.57;19.77;;;;;;;-141.97;99.86;47972.72;5067220;28;20162;-86
2023/01/18 06:27:13;;;;;;;23.13;12.07;;;;;;;-141.97;99.99;47842.00;5059997;28;20603;-86
2023/01/18 06:29:39;;;;;;;20.90;11.57;;;;;;;-141.97;99.13;47811.25;5059537;28;20196;-86
2023/01/18 06:32:04;;;;;;;30.97;13.87;;;;;;;-141.97;99.13;47817.00;5054192;28;20618;-86
2023/01/18 06:34:30;;;;;;;25.00;12.80;;;;;;;-141.97;99.06;47793.94;5054993;28;20169;-86
2023/01/18 06:36:55;;;;;;;52.50;24.67;;;;;;;-141.97;98.17;47991.94;5059982;28;20176;-86
2023/01/18 06:39:21;;;;;;;49.50;23.50;;;;;;;-141.97;98.42;47901.59;5063656;28;20162;-88
2023/01/18 06:41:46;;;;;;;34.63;16.83;;;;;;;-141.97;98.40;47918.88;5053635;28;20248;-85
2023/01/18 06:44:12;;;;;;;32.73;15.97;;;;;;;-141.97;97.51;48009.22;5053703;28;20165;-84
2023/01/18 06:46:37;;;;;;;29.40;15.13;;;;;;;-141.97;96.26;47957.34;5054481;28;20231;-84
2023/01/18 06:49:02;;;;;;;30.27;15.53;;;;;;;-141.97;93.76;47932.34;5054807;28;20188;-86
2023/01/18 06:51:28;;;;;;;28.47;14.30;;;;;;;-141.97;92.85;47953.50;5053857;28;20229;-86
2023/01/18 06:53:53;;;;;;;178.03;72.27;;;;;;;-141.97;91.63;47966.94;5053128;28;20176;-85
2023/01/18 06:56:19;;;;;;;131.33;68.73;;;;;;;-141.97;91.34;47863.13;5061869;28;20196;-86
2023/01/18 06:58:45;;;;;;;89.40;47.07;;;;;;;-141.97;91.05;47918.88;5062025;28;20184;-85
2023/01/18 07:01:10;;;;;;;38.93;15.00;;;;;;;-141.97;89.24;47822.78;5056979;28;20161;-85
2023/01/18 07:03:37;;;;;;;24.53;10.47;;;;;;;-141.97;87.45;47868.91;5055432;28;20238;-84
2023/01/18 07:06:03;;;;;;;30.37;13.07;;;;;;;-141.97;84.85;47730.50;5044737;28;20268;-84
2023/01/18 07:08:29;;;;;;;26.37;10.60;;;;;;;-141.97;83.01;47920.81;5068788;28;20256;-84
2023/01/18 07:10:56;;;;;;;25.40;10.37;;;;;;;-141.97;82.63;47918.88;5051870;28;20783;-84
2023/01/18 07:13:22;;;;;;;30.07;12.93;;;;;;;-141.97;82.33;47911.19;5052693;28;20157;-84
2023/01/18 07:15:53;;;;;;;25.67;12.87;;;;;;;-141.97;81.77;47949.66;5051347;28;20640;-84
2023/01/18 07:18:19;;;;;;;24.43;10.63;;;;;;;-141.97;82.42;47768.94;5052714;28;20176;-84
2023/01/18 07:20:44;;;;;;;24.13;10.00;;;;;;;-141.97;79.06;47978.47;5052984;28;20181;-84
2023/01/18 07:23:09;;;;;;;21.13;9.20;;;;;;;-141.97;78.96;47832.38;5051831;28;20168;-86
2023/01/18 07:25:35;;;;;;;22.20;9.80;;;;;;;-141.97;79.46;47899.66;5051964;28;20173;-84
2023/01/18 07:28:00;;;;;;;35.00;11.47;;;;;;;-141.97;81.47;47849.69;5052276;28;20177;-84
2023/01/18 07:30:26;;;;;;;25.03;10.60;;;;;;;-141.97;80.55;47899.66;5052196;28;20185;-84
2023/01/18 07:32:52;;;;;;;18.70;8.67;;;;;;;-141.97;81.40;47995.78;5052354;28;20212;-84
2023/01/18 07:35:20;;;;;;;23.97;10.97;;;;;;;-141.97;81.24;47918.88;5052457;28;20640;-84
2023/01/18 07:37:51;;;;;;;20.23;10.57;;;;;;;-141.97;81.01;47926.56;5050733;28;20517;-84
2023/01/18 07:40:19;;;;;;;49.67;17.30;;;;;;;-141.97;79.38;47872.75;5052382;28;20156;-84
2023/01/18 07:42:45;;;;;;;104.37;35.87;;;;;;;-141.97;78.86;47874.69;5051575;28;20239;-84
2023/01/18 07:45:12;;;;;;;37.00;18.30;;;;;;;-141.97;78.42;48018.84;5053721;28;20616;-84
2023/01/18 07:47:39;;;;;;;25.70;12.70;;;;;;;-141.97;76.65;47857.38;5076600;28;20221;-83
2023/01/18 07:50:05;;;;;;;31.67;15.13;;;;;;;-141.97;77.18;47788.19;5061732;28;20220;-84
2023/01/18 07:52:30;;;;;;;31.17;14.23;;;;;;;-141.97;77.85;47978.47;5054956;28;20317;-84
2023/01/18 07:54:56;;;;;;;31.10;12.93;;;;;;;-141.97;79.18;47961.19;5050961;28;20262;-84
2023/01/18 07:57:21;;;;;;;17.97;5.33;;;;;;;-141.97;77.29;47822.78;5050374;28;20174;-84
2023/01/18 07:59:46;;;;;;;26.33;11.93;;;;;;;-141.97;74.11;47905.44;5053310;28;20224;-85
2023/01/18 08:02:13;;;;;;;28.27;13.60;;;;;;;-141.97;72.42;47795.88;5053041;28;20161;-84
2023/01/18 08:04:39;;;;;;;25.87;13.13;;;;;;;-141.97;71.34;47815.09;5054206;28;20161;-84
2023/01/18 08:07:07;;;;;;;23.63;11.10;;;;;;;-141.97;69.47;47849.69;5074709;28;20207;-85
2023/01/18 08:09:33;;;;;;;104.87;45.07;;;;;;;-141.97;70.14;47795.88;5053759;28;20216;-84
2023/01/18 08:12:00;;;;;;;88.13;43.47;;;;;;;-141.97;69.32;47811.25;5052216;28;20205;-83
2023/01/18 08:14:26;;;;;;;70.93;38.43;;;;;;;-141.97;69.31;47868.91;5066866;28;20188;-86
2023/01/18 08:16:51;;;;;;;59.80;32.20;;;;;;;-141.97;61.74;47838.16;5052145;28;20181;-84
2023/01/18 08:19:16;;;;;;;42.93;19.37;;;;;;;-141.97;61.73;47963.09;5053108;28;20583;-84
2023/01/18 08:21:43;;;;;;;29.43;11.57;;;;;;;-141.97;61.32;47897.75;5050828;28;20184;-84
2023/01/18 08:24:08;;;;;;;120.93;61.80;;;;;;;-141.97;59.69;47845.84;5052261;28;20248;-85
2023/01/18 08:26:33;;;;;;;17.63;6.67;;;;;;;-141.97;60.19;47795.88;5054535;28;20187;-84
2023/01/18 08:28:59;;;;;;;17.33;8.13;;;;;;;-141.97;60.14;47855.44;5053531;28;20542;-85
2023/01/18 08:31:25;;;;;;;16.47;7.77;;;;;;;-141.97;61.01;47772.78;5052634;28;20161;-85
2023/01/18 08:33:51;;;;;;;25.97;10.37;;;;;;;-141.97;60.65;47847.75;5051797;28;20205;-85
2023/01/18 08:36:20;;;;;;;19.77;7.23;;;;;;;-141.97;60.24;47874.69;5052035;28;20605;-85
2023/01/18 08:38:54;;;;;;;17.80;6.13;;;;;;;-141.97;59.44;47872.75;5052007;28;20274;-78
2023/01/18 08:41:21;;;;;;;19.20;6.70;;;;;;;-141.97;59.25;47855.44;5054461;28;20180;-79
2023/01/18 08:43:51;;;;;;;17.40;7.47;;;;;;;-141.97;58.78;47842.00;5058882;28;20166;-78
2023/01/18 08:46:16;;;;;;;14.20;6.20;;;;;;;-141.97;57.34;47863.13;5058239;28;20248;-78
2023/01/18 08:48:42;;;;;;;15.33;4.43;;;;;;;-141.97;56.68;47845.84;5075703;28;20193;-78
2023/01/18 08:51:08;;;;;;;9.43;3.60;;;;;;;-141.97;54.77;47811.25;5075326;28;20221;-79
2023/01/18 08:53:34;;;;;;;13.70;3.97;;;;;;;-141.97;55.82;47838.16;5077225;28;20183;-79
2023/01/18 08:56:04;;;;;;;69.67;34.47;;;;;;;-141.97;56.38;47847.75;5081038;28;20178;-80
2023/01/18 08:58:31;;;;;;;11.70;4.00;;;;;;;-141.97;56.48;47853.53;5066226;28;20252;-79
2023/01/18 09:00:56;;;;;;;13.03;5.43;;;;;;;-141.97;55.33;47857.38;5059292;28;20161;-79
2023/01/18 09:03:22;;;;;;;13.40;4.53;;;;;;;-141.97;54.52;47817.00;5059307;28;20184;-78
2023/01/18 09:05:48;;;;;;;10.40;4.40;;;;;;;-141.97;52.00;47849.69;5060023;28;20199;-78
2023/01/18 09:08:13;;;;;;;11.77;3.63;;;;;;;-141.97;50.69;47809.31;5063494;28;20170;-78
2023/01/18 09:10:39;;;;;;;12.80;4.20;;;;;;;-141.97;51.82;47828.53;5065655;28;20290;-78
2023/01/18 09:13:04;;;;;;;12.77;4.50;;;;;;;-141.97;52.34;47830.47;5078007;28;20254;-77
2023/01/18 09:15:31;;;;;;;17.70;7.10;;;;;;;-141.97;51.60;47793.94;5077451;28;20195;-79
2023/01/18 09:17:57;;;;;;;25.53;11.77;;;;;;;-141.97;50.51;47838.16;5067976;28;20172;-80
2023/01/18 09:20:23;;;;;;;10.60;4.37;;;;;;;-141.97;50.72;47857.38;5060743;28;20192;-78
2023/01/18 09:22:48;;;;;;;7.20;3.13;;;;;;;-141.97;49.41;47842.00;5058903;28;20195;-79
2023/01/18 09:25:17;;;;;;;6.47;3.20;;;;;;;-141.97;48.47;47765.09;5060016;28;20248;-81
2023/01/18 09:27:43;;;;;;;6.17;2.37;;;;;;;-141.97;46.52;47795.88;5059294;28;20256;-81
2023/01/18 09:30:09;;;;;;;8.83;3.30;;;;;;;-141.97;46.30;47799.72;5058249;28;20205;-79
2023/01/18 09:32:35;;;;;;;9.60;3.93;;;;;;;-141.97;45.81;47792.03;5058796;28;20181;-80
2023/01/18 09:35:01;;;;;;;10.67;3.83;;;;;;;-141.97;45.93;47790.09;5058716;28;20181;-79
2023/01/18 09:37:27;;;;;;;9.93;4.13;;;;;;;-141.97;45.64;47822.78;5058776;28;20189;-79
2023/01/18 09:39:52;;;;;;;9.27;3.57;;;;;;;-141.97;43.84;47757.41;5058609;28;20169;-80
2023/01/18 09:42:24;;;;;;;13.10;6.07;;;;;;;-141.97;43.58;47826.63;5058231;28;20184;-80
2023/01/18 09:44:54;;;;;;;18.40;7.83;;;;;;;-141.97;44.30;47786.25;5058522;28;20626;-79
2023/01/18 09:47:35;;;;;;;12.43;4.90;;;;;;;-141.97;44.16;47811.25;5067471;28;20169;-78
2023/01/18 09:50:21;;;;;;;41.33;18.90;;;;;;;-141.97;42.97;47788.19;5063333;28;20204;-79
2023/01/18 09:52:51;;;;;;;13.53;5.37;;;;;;;-141.97;42.87;47807.41;5059035;28;20233;-78
2023/01/18 09:55:41;;;;;;;11.80;4.67;;;;;;;-141.97;42.44;47817.00;5060266;28;20171;-80
2023/01/18 09:58:12;;;;;;;12.20;6.33;;;;;;;-141.97;41.36;47768.94;5059495;28;20165;-78
2023/01/18 10:00:44;;;;;;;8.67;3.50;;;;;;;-141.97;41.15;47799.72;5057525;28;20161;-78
2023/01/18 10:03:27;;;;;;;16.13;3.27;;;;;;;-141.97;40.69;47801.63;5057117;28;20173;-78
2023/01/18 10:06:07;;;;;;;15.60;8.23;;;;;;;-141.97;41.10;47792.03;5055007;28;20165;-78
2023/01/18 10:08:44;;;;;;;17.37;10.83;;;;;;;-141.97;41.38;47801.63;5064720;28;20157;-77
2023/01/18 10:11:18;;;;;;;8.70;2.40;;;;;;;-141.97;40.11;47957.34;5071253;28;20825;-78
2023/01/18 10:14:17;;;;;;;7.07;2.67;;;;;;;-141.97;41.07;47763.19;5054808;28;20181;-79
2023/01/18 10:16:43;;;;;;;6.50;1.93;;;;;;;-141.97;39.88;47761.25;5055109;28;20176;-79
2023/01/18 10:19:18;;;;;;;9.47;4.33;;;;;;;-141.97;39.50;47813.16;5053744;28;20248;-78
2023/01/18 10:21:51;;;;;;;10.23;2.67;;;;;;;-141.97;39.67;47795.88;5054708;28;20161;-78
2023/01/18 10:24:23;;;;;;;10.23;1.83;;;;;;;-141.97;39.73;47866.97;5054710;28;20275;-78
2023/01/18 10:26:52;;;;;;;6.30;2.20;;;;;;;-141.97;39.38;47763.19;5054540;28;20780;-79
2023/01/18 10:29:36;;;;;;;12.40;1.90;;;;;;;-141.97;38.75;47922.72;5055552;28;20249;-79
2023/01/18 10:32:09;;;;;;;8.00;1.80;;;;;;;-141.97;38.42;47770.88;5051664;28;20541;-78
2023/01/18 10:34:39;;;;;;;7.10;1.50;;;;;;;-141.97;38.41;47957.34;5053521;28;20172;-79
2023/01/18 10:37:14;;;;;;;5.60;1.80;;;;;;;-141.97;38.54;47782.41;5051424;28;20241;-79
2023/01/18 10:39:46;;;;;;;5.10;1.67;;;;;;;-141.97;38.84;47818.94;5053428;28;20590;-80
2023/01/18 10:42:20;;;;;;;4.67;1.87;;;;;;;-141.97;37.89;47757.41;5053712;28;20197;-80
2023/01/18 10:44:46;;;;;;;7.17;2.30;;;;;;;-141.97;38.25;47803.56;5053830;28;20177;-78
2023/01/18 10:47:16;;;;;;;5.30;1.60;;;;;;;-141.97;38.58;47776.63;5055418;28;20173;-78
2023/01/18 10:49:44;;;;;;;6.50;1.70;;;;;;;-141.97;39.21;47790.09;5054917;28;20217;-79
2023/01/18 10:52:29;;;;;;;6.03;1.70;;;;;;;-141.97;39.25;47772.78;5053829;28;20228;-79
2023/01/18 10:55:06;;;;;;;7.10;1.77;;;;;;;-141.97;39.47;47799.72;5053528;28;20165;-79
2023/01/18 10:57:42;;;;;;;4.67;1.40;;;;;;;-141.97;39.24;47807.41;5052849;28;20495;-79
2023/01/18 11:00:20;;;;;;;7.07;1.60;;;;;;;-141.97;39.13;47803.56;5052957;28;20185;-79
2023/01/18 11:02:48;;;;;;;5.10;1.63;;;;;;;-141.97;39.25;47803.56;5053180;28;20227;-79
2023/01/18 11:05:33;;;;;;;7.10;1.80;;;;;;;-141.97;38.48;47770.88;5051607;28;20169;-79
2023/01/18 11:08:31;;;;;;;8.10;2.37;;;;;;;-141.97;38.44;47749.72;5052747;28;20161;-79
2023/01/18 11:11:16;;;;;;;11.00;2.13;;;;;;;-141.97;39.07;47767.03;5052444;28;20169;-79
2023/01/18 11:13:47;;;;;;;8.03;1.90;;;;;;;-141.97;39.69;47759.34;5053333;28;20262;-85
2023/01/18 11:16:20;;;;;;;4.90;1.57;;;;;;;-141.97;39.39;47772.78;5052987;28;20158;-80
2023/01/18 11:18:58;;;;;;;5.43;1.63;;;;;;;-141.97;39.97;47778.56;5052681;28;20165;-85
2023/01/18 11:21:30;;;;;;;11.67;2.20;;;;;;;-141.97;39.28;47788.19;5056304;28;20236;-85
2023/01/18 11:23:56;;;;;;;8.27;2.17;;;;;;;-141.97;39.66;47903.50;5069105;28;20584;-81
2023/01/18 11:26:22;;;;;;;9.17;1.93;;;;;;;-141.97;39.44;47742.03;5044015;28;20211;-80
2023/01/18 11:28:57;;;;;;;10.53;2.00;;;;;;;-141.97;40.02;47649.78;5052218;28;20253;-83
2023/01/18 11:31:25;;;;;;;7.77;1.70;;;;;;;-141.97;40.05;47765.09;5054407;28;20169;-89
2023/01/18 11:33:59;;;;;;;11.37;1.73;;;;;;;-141.97;39.51;47786.25;5052873;28;20197;-90
2023/01/18 11:36:33;;;;;;;9.13;2.00;;;;;;;-141.97;40.32;47811.25;5051947;28;20602;-87
2023/01/18 11:39:31;;;;;;;10.23;2.43;;;;;;;-141.97;40.73;47797.78;5049178;28;20188;-86
2023/01/18 11:42:19;;;;;;;12.07;2.50;;;;;;;-141.97;41.19;47782.41;5051822;28;20177;-87